Lady Ann Magee — 9HA2775 — position and weather

sailwx.info

Track history (hours):
 
Tides and Currents Weather Stations Pressure Air Temp Water Temp Dewpoint Dewpoint Depression Visibility Wind Speed Wind Dir Waves Ship Positions

Lady Ann Magee

Last reported at 2017-Feb-21 18:33 UTC. Time now 2017-Feb-23 09:23 UTC.
Position N 18°02' W 063°07'.

Length 49 m; draft 3.4 m.

Type: Pleasure craft. MMSI: 215660000.

Date/timePositionNaut miles runAvg speedWind from/ knotsBaromVisibWave heightAir tempDewpointWater temp
2017-Feb-21 18:33N 18°02' W 063°07'0 0.4
2017-Feb-21 17:31N 18°02' W 063°06'0 0.0
2017-Feb-21 16:31N 18°02' W 063°06'0 0.0
2017-Feb-21 15:19N 18°02' W 063°06'0 0.0
2017-Feb-21 14:22N 18°02' W 063°06'0 0.0
2017-Feb-21 13:25N 18°02' W 063°06'0 0.0
2017-Feb-21 12:25N 18°02' W 063°06'0 0.2
2017-Feb-21 11:31N 18°02' W 063°06'1111.3
2017-Feb-21 10:33N 18°06' W 063°17'1211.7
2017-Feb-21 09:30N 18°11' W 063°29'58 1.9
2017-Feb-20 02:33N 18°26' W 064°28'6512.6
2017-Feb-19 21:24N 18°08' W 063°22'17 9.0
2017-Feb-19 19:32N 18°02' W 063°06'0 0.0
2017-Feb-19 18:20N 18°02' W 063°06'0 0.0
2017-Feb-19 17:26N 18°02' W 063°06'0 0.0
2017-Feb-19 16:26N 18°02' W 063°06'0 0.0
2017-Feb-19 15:26N 18°02' W 063°06'0 0.0
2017-Feb-19 14:26N 18°02' W 063°06'0 0.0
2017-Feb-19 13:14N 18°02' W 063°06'0 0.0
2017-Feb-19 12:32N 18°02' W 063°06'0 0.0
2017-Feb-19 11:32N 18°02' W 063°06'0 0.0
2017-Feb-19 10:32N 18°02' W 063°06'0 0.0
2017-Feb-19 09:17N 18°02' W 063°06'0 0.0
2017-Feb-19 08:32N 18°02' W 063°06'0 0.0
2017-Feb-19 07:32N 18°02' W 063°06'0 0.0
2017-Feb-19 06:32N 18°02' W 063°06'0 0.0
2017-Feb-19 05:23N 18°02' W 063°06'0 0.0
2017-Feb-19 04:23N 18°02' W 063°06'0 0.0
2017-Feb-19 03:26N 18°02' W 063°06'0 0.0
2017-Feb-19 02:26N 18°02' W 063°06'0 0.0
2017-Feb-19 01:26N 18°02' W 063°06'0 0.0
2017-Feb-19 00:29N 18°02' W 063°06'0 0.0
2017-Feb-18 23:26N 18°02' W 063°06'0 0.0
2017-Feb-18 22:32N 18°02' W 063°06'0 0.0
2017-Feb-18 21:32N 18°02' W 063°06'1 1.4
2017-Feb-18 20:30N 18°01' W 063°05'  
2017-Feb-14 20:30N 17°60' W 063°03'3 3.1
2017-Feb-14 19:23N 18°02' W 063°05'0 0.0
2017-Feb-14 18:26N 18°02' W 063°05'0 0.0
2017-Feb-14 17:11N 18°02' W 063°05'0 0.0
2017-Feb-14 16:29N 18°02' W 063°05'0 0.0
2017-Feb-14 15:29N 18°02' W 063°05'0 0.0
2017-Feb-14 14:14N 18°02' W 063°05'0 0.0
2017-Feb-14 13:32N 18°02' W 063°05'0 0.0
2017-Feb-14 12:32N 18°02' W 063°05'0 0.0
2017-Feb-14 11:29N 18°02' W 063°05'0 0.0
2017-Feb-14 10:32N 18°02' W 063°05'0 0.0
2017-Feb-14 09:20N 18°02' W 063°05'0 0.0
2017-Feb-14 08:32N 18°02' W 063°05'0 0.0
2017-Feb-14 07:23N 18°02' W 063°05'0 0.0
2017-Feb-14 06:23N 18°02' W 063°05'0 0.0
2017-Feb-14 05:23N 18°02' W 063°05'0 0.0
2017-Feb-14 04:26N 18°02' W 063°05'0 0.0
2017-Feb-14 03:26N 18°02' W 063°05'0 0.0
2017-Feb-14 02:29N 18°02' W 063°05'0 0.0
2017-Feb-14 01:29N 18°02' W 063°05'0 0.0
2017-Feb-14 00:26N 18°02' W 063°05'0 0.0
2017-Feb-13 23:32N 18°02' W 063°05'0 0.0
2017-Feb-13 22:32N 18°02' W 063°05'0 0.0
2017-Feb-13 21:32N 18°02' W 063°05'0 0.0
2017-Feb-13 20:32N 18°02' W 063°05'0 0.0
2017-Feb-13 19:32N 18°02' W 063°05'0 0.0
2017-Feb-13 18:32N 18°02' W 063°05'0 0.0
2017-Feb-13 17:20N 18°02' W 063°05'0 0.0
2017-Feb-13 16:23N 18°02' W 063°05'0 0.0
2017-Feb-13 15:26N 18°02' W 063°05'0 0.0
2017-Feb-13 14:23N 18°02' W 063°05'0 0.0
2017-Feb-13 13:26N 18°02' W 063°05'0 0.0
2017-Feb-13 12:23N 18°02' W 063°05'0 0.0
2017-Feb-13 11:29N 18°02' W 063°05'0 0.0
2017-Feb-13 10:29N 18°02' W 063°05'0 0.0
2017-Feb-13 09:29N 18°02' W 063°05'0 0.0
2017-Feb-13 08:32N 18°02' W 063°05'0 0.0
2017-Feb-13 07:29N 18°02' W 063°05'0 0.0
2017-Feb-13 06:20N 18°02' W 063°05'0 0.0
2017-Feb-13 05:32N 18°02' W 063°05'0 0.0
2017-Feb-13 04:32N 18°02' W 063°05'0 0.0
2017-Feb-13 03:23N 18°02' W 063°05'0 0.0
2017-Feb-13 02:23N 18°02' W 063°05'0 0.0
2017-Feb-13 01:26N 18°02' W 063°05'0 0.0
2017-Feb-13 00:26N 18°02' W 063°05'0 0.0
2017-Feb-12 23:29N 18°02' W 063°05'0 0.0
2017-Feb-12 22:29N 18°02' W 063°05'0 0.0
2017-Feb-12 21:29N 18°02' W 063°05'0 0.0
2017-Feb-12 20:32N 18°02' W 063°05'0 0.0
2017-Feb-12 19:32N 18°02' W 063°05'0 0.0
2017-Feb-12 18:32N 18°02' W 063°05'0 0.0
2017-Feb-12 17:32N 18°02' W 063°05'0 0.0
2017-Feb-12 16:32N 18°02' W 063°05'0 0.4
2017-Feb-12 15:31N 18°02' W 063°06'  
Track history (hours):
 
Tides and Currents Weather Stations Pressure Air Temp Water Temp Dewpoint Dewpoint Depression Visibility Wind Speed Wind Dir Waves Ship Positions

Lady Ann Magee

Last reported at 2017-Feb-21 18:33 UTC. Time now 2017-Feb-23 09:23 UTC.
Position N 18°02' W 063°07'.

Length 49 m; draft 3.4 m.

Type: Pleasure craft. MMSI: 215660000.

Date/timePositionNaut miles runAvg speedWind from/ knotsBaromVisibWave heightAir tempDewpointWater temp
2017-Feb-21 18:33N 18°02' W 063°07'0 0.4
2017-Feb-21 17:31N 18°02' W 063°06'0 0.0
2017-Feb-21 16:31N 18°02' W 063°06'0 0.0
2017-Feb-21 15:19N 18°02' W 063°06'0 0.0
2017-Feb-21 14:22N 18°02' W 063°06'0 0.0
2017-Feb-21 13:25N 18°02' W 063°06'0 0.0
2017-Feb-21 12:25N 18°02' W 063°06'0 0.2
2017-Feb-21 11:31N 18°02' W 063°06'1111.3
2017-Feb-21 10:33N 18°06' W 063°17'1211.7
2017-Feb-21 09:30N 18°11' W 063°29'58 1.9
2017-Feb-20 02:33N 18°26' W 064°28'6512.6
2017-Feb-19 21:24N 18°08' W 063°22'17 9.0
2017-Feb-19 19:32N 18°02' W 063°06'0 0.0
2017-Feb-19 18:20N 18°02' W 063°06'0 0.0
2017-Feb-19 17:26N 18°02' W 063°06'0 0.0
2017-Feb-19 16:26N 18°02' W 063°06'0 0.0
2017-Feb-19 15:26N 18°02' W 063°06'0 0.0
2017-Feb-19 14:26N 18°02' W 063°06'0 0.0
2017-Feb-19 13:14N 18°02' W 063°06'0 0.0
2017-Feb-19 12:32N 18°02' W 063°06'0 0.0
2017-Feb-19 11:32N 18°02' W 063°06'0 0.0
2017-Feb-19 10:32N 18°02' W 063°06'0 0.0
2017-Feb-19 09:17N 18°02' W 063°06'0 0.0
2017-Feb-19 08:32N 18°02' W 063°06'0 0.0
2017-Feb-19 07:32N 18°02' W 063°06'0 0.0
2017-Feb-19 06:32N 18°02' W 063°06'0 0.0
2017-Feb-19 05:23N 18°02' W 063°06'0 0.0
2017-Feb-19 04:23N 18°02' W 063°06'0 0.0
2017-Feb-19 03:26N 18°02' W 063°06'0 0.0
2017-Feb-19 02:26N 18°02' W 063°06'0 0.0
2017-Feb-19 01:26N 18°02' W 063°06'0 0.0
2017-Feb-19 00:29N 18°02' W 063°06'0 0.0
2017-Feb-18 23:26N 18°02' W 063°06'0 0.0
2017-Feb-18 22:32N 18°02' W 063°06'0 0.0
2017-Feb-18 21:32N 18°02' W 063°06'1 1.4
2017-Feb-18 20:30N 18°01' W 063°05'  
2017-Feb-14 20:30N 17°60' W 063°03'3 3.1
2017-Feb-14 19:23N 18°02' W 063°05'0 0.0
2017-Feb-14 18:26N 18°02' W 063°05'0 0.0
2017-Feb-14 17:11N 18°02' W 063°05'0 0.0
2017-Feb-14 16:29N 18°02' W 063°05'0 0.0
2017-Feb-14 15:29N 18°02' W 063°05'0 0.0
2017-Feb-14 14:14N 18°02' W 063°05'0 0.0
2017-Feb-14 13:32N 18°02' W 063°05'0 0.0
2017-Feb-14 12:32N 18°02' W 063°05'0 0.0
2017-Feb-14 11:29N 18°02' W 063°05'0 0.0
2017-Feb-14 10:32N 18°02' W 063°05'0 0.0
2017-Feb-14 09:20N 18°02' W 063°05'0 0.0
2017-Feb-14 08:32N 18°02' W 063°05'0 0.0
2017-Feb-14 07:23N 18°02' W 063°05'0 0.0
2017-Feb-14 06:23N 18°02' W 063°05'0 0.0
2017-Feb-14 05:23N 18°02' W 063°05'0 0.0
2017-Feb-14 04:26N 18°02' W 063°05'0 0.0
2017-Feb-14 03:26N 18°02' W 063°05'0 0.0
2017-Feb-14 02:29N 18°02' W 063°05'0 0.0
2017-Feb-14 01:29N 18°02' W 063°05'0 0.0
2017-Feb-14 00:26N 18°02' W 063°05'0 0.0
2017-Feb-13 23:32N 18°02' W 063°05'0 0.0
2017-Feb-13 22:32N 18°02' W 063°05'0 0.0
2017-Feb-13 21:32N 18°02' W 063°05'0 0.0
2017-Feb-13 20:32N 18°02' W 063°05'0 0.0
2017-Feb-13 19:32N 18°02' W 063°05'0 0.0
2017-Feb-13 18:32N 18°02' W 063°05'0 0.0
2017-Feb-13 17:20N 18°02' W 063°05'0 0.0
2017-Feb-13 16:23N 18°02' W 063°05'0 0.0
2017-Feb-13 15:26N 18°02' W 063°05'0 0.0
2017-Feb-13 14:23N 18°02' W 063°05'0 0.0
2017-Feb-13 13:26N 18°02' W 063°05'0 0.0
2017-Feb-13 12:23N 18°02' W 063°05'0 0.0
2017-Feb-13 11:29N 18°02' W 063°05'0 0.0
2017-Feb-13 10:29N 18°02' W 063°05'0 0.0
2017-Feb-13 09:29N 18°02' W 063°05'0 0.0
2017-Feb-13 08:32N 18°02' W 063°05'0 0.0
2017-Feb-13 07:29N 18°02' W 063°05'0 0.0
2017-Feb-13 06:20N 18°02' W 063°05'0 0.0
2017-Feb-13 05:32N 18°02' W 063°05'0 0.0
2017-Feb-13 04:32N 18°02' W 063°05'0 0.0
2017-Feb-13 03:23N 18°02' W 063°05'0 0.0
2017-Feb-13 02:23N 18°02' W 063°05'0 0.0
2017-Feb-13 01:26N 18°02' W 063°05'0 0.0
2017-Feb-13 00:26N 18°02' W 063°05'0 0.0
2017-Feb-12 23:29N 18°02' W 063°05'0 0.0
2017-Feb-12 22:29N 18°02' W 063°05'0 0.0
2017-Feb-12 21:29N 18°02' W 063°05'0 0.0
2017-Feb-12 20:32N 18°02' W 063°05'0 0.0
2017-Feb-12 19:32N 18°02' W 063°05'0 0.0
2017-Feb-12 18:32N 18°02' W 063°05'0 0.0
2017-Feb-12 17:32N 18°02' W 063°05'0 0.0
2017-Feb-12 16:32N 18°02' W 063°05'0 0.4
2017-Feb-12 15:31N 18°02' W 063°06'  

Dump ship's entire track history